Time;durP1;ratioP1;P1;durP2;ratioP2;P2;SDS_P1;SDS_P2;PMS_P1;PMS_P2;Temp;Humidity;BMP_temperature;BMP_pressure;BME280_temperature;BME280_humidity;BME280_pressure;Samples;Min_cycle;Max_cycle;Signal;HPM_P1;HPM_P2
2021/07/19 00:01:36;;;;;;;;;;;;;;;17.60;74.26;99880.53;4974226;28;19918;-61
2021/07/19 00:04:01;;;;;;;;;;;;;;;17.55;74.73;99884.06;4974612;28;20353;-61
2021/07/19 00:06:26;;;;;;;;;;;;;;;17.44;74.83;99885.13;4974048;28;19929;-61
2021/07/19 00:08:52;;;;;;;;;;;;;;;17.41;75.43;99883.78;4974655;28;19920;-61
2021/07/19 00:11:17;;;;;;;;;;;;;;;17.36;75.58;99875.66;4974270;28;20394;-61
2021/07/19 00:13:42;;;;;;;;;;;;;;;17.34;75.47;99872.41;4973478;28;19921;-61
2021/07/19 00:16:08;;;;;;;;;;;;;;;17.30;75.85;99865.91;4973944;28;19997;-61
2021/07/19 00:18:33;;;;;;;;;;;;;;;17.28;75.26;99872.69;4974641;28;19910;-61
2021/07/19 00:20:58;;;;;;;;;;;;;;;17.25;75.37;99871.34;4977192;28;20353;-61
2021/07/19 00:23:24;;;;;;;;;;;;;;;17.19;75.62;99865.06;4978770;28;19917;-61
2021/07/19 00:25:50;;;;;;;;;;;;;;;17.24;75.33;99884.03;4978187;28;19929;-61
2021/07/19 00:28:15;;;;;;;;;;;;;;;17.21;75.22;99881.06;4978509;28;19914;-61
2021/07/19 00:30:40;;;;;;;;;;;;;;;17.10;76.04;99874.84;4978147;28;19921;-61
2021/07/19 00:33:06;;;;;;;;;;;;;;;17.10;76.16;99874.84;4978444;28;19921;-61
2021/07/19 00:35:31;;;;;;;;;;;;;;;16.86;76.72;99871.81;4977982;28;19968;-61
2021/07/19 00:37:56;;;;;;;;;;;;;;;16.97;76.27;99873.47;4978420;28;19918;-61
2021/07/19 00:40:23;;;;;;;;;;;;;;;16.96;76.27;99874.53;4977909;28;19972;-61
2021/07/19 00:42:48;;;;;;;;;;;;;;;16.93;76.74;99869.69;4978182;28;19954;-61
2021/07/19 00:45:14;;;;;;;;;;;;;;;16.84;76.50;99871.28;4976655;28;19957;-61
2021/07/19 00:47:40;;;;;;;;;;;;;;;16.72;77.46;99867.97;4978044;28;19933;-61
2021/07/19 00:50:06;;;;;;;;;;;;;;;16.73;76.66;99866.91;4977534;28;20383;-62
2021/07/19 00:52:32;;;;;;;;;;;;;;;16.74;76.41;99877.44;4977978;28;20392;-61
2021/07/19 00:54:57;;;;;;;;;;;;;;;16.72;77.03;99868.78;4976556;28;19972;-61
2021/07/19 00:57:23;;;;;;;;;;;;;;;16.71;76.67;99874.47;4977427;28;19918;-61
2021/07/19 00:59:48;;;;;;;;;;;;;;;16.56;77.00;99864.41;4976736;28;20356;-62
2021/07/19 01:02:13;;;;;;;;;;;;;;;16.59;77.71;99875.50;4976180;28;19925;-61
2021/07/19 01:04:38;;;;;;;;;;;;;;;16.63;77.41;99869.59;4977641;28;20162;-61
2021/07/19 01:07:04;;;;;;;;;;;;;;;16.63;76.92;99873.09;4977233;28;19917;-61
2021/07/19 01:09:29;;;;;;;;;;;;;;;16.56;77.74;99872.53;4976633;28;20384;-61
2021/07/19 01:11:58;;;;;;;;;;;;;;;16.45;78.06;99869.00;4977115;28;19941;-61
2021/07/19 01:14:23;;;;;;;;;;;;;;;16.26;78.62;99865.94;4977537;28;19914;-61
2021/07/19 01:16:49;;;;;;;;;;;;;;;16.33;78.83;99865.69;4977079;28;19922;-61
2021/07/19 01:19:14;;;;;;;;;;;;;;;16.29;78.68;99864.59;4977433;28;19914;-61
2021/07/19 01:21:47;;;;;;;;;;;;;;;16.20;78.61;99863.47;4975755;28;19918;-61
2021/07/19 01:24:31;;;;;;;;;;;;;;;16.23;78.67;99862.97;4976435;28;19914;-62
2021/07/19 01:27:00;;;;;;;;;;;;;;;16.14;78.92;99863.44;4975521;28;20263;-61
2021/07/19 01:29:25;;;;;;;;;;;;;;;16.08;79.45;99861.81;4975960;28;19992;-61
2021/07/19 01:31:52;;;;;;;;;;;;;;;16.08;79.84;99861.81;4974390;28;19917;-61
2021/07/19 01:34:22;;;;;;;;;;;;;;;16.08;79.16;99866.41;4975937;28;20357;-61
2021/07/19 01:36:47;;;;;;;;;;;;;;;15.97;80.06;99862.81;4976809;28;20336;-61
2021/07/19 01:39:13;;;;;;;;;;;;;;;15.92;80.41;99865.50;4977127;28;19914;-61
2021/07/19 01:41:38;;;;;;;;;;;;;;;16.07;79.77;99860.16;4976644;28;19918;-61
2021/07/19 01:44:03;;;;;;;;;;;;;;;16.02;79.85;99857.44;4975726;28;20013;-61
2021/07/19 01:46:31;;;;;;;;;;;;;;;16.01;80.22;99871.22;4975288;28;19933;-61
2021/07/19 01:48:56;;;;;;;;;;;;;;;16.05;80.16;99872.31;4976710;28;20012;-61
2021/07/19 01:51:22;;;;;;;;;;;;;;;16.13;79.56;99872.66;4975375;28;20016;-61
2021/07/19 01:53:47;;;;;;;;;;;;;;;15.99;80.20;99873.38;4975779;28;19961;-61
2021/07/19 01:56:13;;;;;;;;;;;;;;;15.99;80.27;99868.78;4977634;28;20390;-61
2021/07/19 01:58:39;;;;;;;;;;;;;;;15.83;80.94;99870.59;4975603;28;19914;-61
2021/07/19 02:01:04;;;;;;;;;;;;;;;15.83;81.38;99867.91;4975145;28;20021;-61
2021/07/19 02:03:30;;;;;;;;;;;;;;;15.93;81.08;99864.44;4976751;28;20272;-61
2021/07/19 02:05:55;;;;;;;;;;;;;;;15.89;80.71;99861.44;4976110;28;19918;-61
2021/07/19 02:08:21;;;;;;;;;;;;;;;15.86;81.16;99867.38;4959315;28;19914;-61
2021/07/19 02:10:46;;;;;;;;;;;;;;;15.84;81.36;99857.88;4976231;28;19918;-61
2021/07/19 02:13:12;;;;;;;;;;;;;;;15.84;81.52;99869.50;4975348;28;19914;-61
2021/07/19 02:15:37;;;;;;;;;;;;;;;15.84;81.61;99868.69;4976091;28;19918;-61
2021/07/19 02:18:02;;;;;;;;;;;;;;;15.89;81.60;99858.72;4975492;28;19914;-61
2021/07/19 02:20:28;;;;;;;;;;;;;;;15.81;81.37;99858.41;4975050;28;19918;-61
2021/07/19 02:22:53;;;;;;;;;;;;;;;15.86;81.78;99855.75;4976259;28;19914;-61
2021/07/19 02:25:18;;;;;;;;;;;;;;;15.84;81.68;99852.50;4975882;28;19914;-61
2021/07/19 02:27:45;;;;;;;;;;;;;;;15.70;81.54;99852.97;4976207;28;19914;-61
2021/07/19 02:30:14;;;;;;;;;;;;;;;15.68;82.34;99859.66;4974236;28;19918;-61
2021/07/19 02:32:39;;;;;;;;;;;;;;;15.74;82.25;99861.34;4976070;28;20257;-61
2021/07/19 02:35:08;;;;;;;;;;;;;;;15.75;82.44;99854.88;4974448;28;19921;-61
2021/07/19 02:37:37;;;;;;;;;;;;;;;15.61;82.61;99854.47;4976029;28;20368;-61
2021/07/19 02:40:03;;;;;;;;;;;;;;;15.55;82.59;99850.13;4974406;28;20403;-61
2021/07/19 02:42:28;;;;;;;;;;;;;;;15.54;83.02;99848.47;4974508;28;19953;-61
2021/07/19 02:44:53;;;;;;;;;;;;;;;15.48;83.31;99852.25;4974559;28;19972;-61
2021/07/19 02:47:18;;;;;;;;;;;;;;;15.50;83.44;99853.59;4974010;28;19925;-61
2021/07/19 02:49:44;;;;;;;;;;;;;;;15.49;83.45;99862.78;4974741;28;19984;-61
2021/07/19 02:52:09;;;;;;;;;;;;;;;15.36;83.83;99865.13;4974212;28;20354;-61
2021/07/19 02:54:34;;;;;;;;;;;;;;;15.41;83.85;99865.16;4974526;28;19921;-61
2021/07/19 02:57:00;;;;;;;;;;;;;;;15.45;83.70;99860.84;4975231;28;19928;-61
2021/07/19 02:59:26;;;;;;;;;;;;;;;15.40;84.40;99858.09;4974412;28;20013;-61
2021/07/19 03:01:52;;;;;;;;;;;;;;;15.40;84.10;99868.91;4975302;28;19918;-61
2021/07/19 03:04:17;;;;;;;;;;;;;;;15.35;84.24;99855.38;4974557;28;19965;-61
2021/07/19 03:06:42;;;;;;;;;;;;;;;15.29;84.94;99863.44;4975080;28;19918;-61
2021/07/19 03:09:07;;;;;;;;;;;;;;;15.34;84.68;99859.16;4974335;28;19914;-61
2021/07/19 03:11:35;;;;;;;;;;;;;;;15.30;84.86;99859.66;4973830;28;20306;-61
2021/07/19 03:14:01;;;;;;;;;;;;;;;15.27;84.65;99856.66;4975354;28;19914;-61
2021/07/19 03:16:26;;;;;;;;;;;;;;;15.28;84.85;99853.72;4973873;28;19918;-61
2021/07/19 03:18:52;;;;;;;;;;;;;;;15.30;84.68;99856.97;4973186;28;19910;-61
2021/07/19 03:21:18;;;;;;;;;;;;;;;15.38;84.79;99854.88;4974804;28;20307;-61
2021/07/19 03:23:46;;;;;;;;;;;;;;;15.32;84.19;99841.31;4974268;28;19910;-60
2021/07/19 03:26:11;;;;;;;;;;;;;;;15.39;84.46;99848.38;4973598;28;19918;-60
2021/07/19 03:28:42;;;;;;;;;;;;;;;15.31;84.50;99845.09;4975152;28;19914;-60
2021/07/19 03:31:08;;;;;;;;;;;;;;;15.36;84.17;99852.41;4973450;28;20325;-60
2021/07/19 03:33:41;;;;;;;;;;;;;;;15.42;83.84;99850.56;4975104;28;19920;-62
2021/07/19 03:36:06;;;;;;;;;;;;;;;15.25;85.10;99846.13;4974889;28;20017;-60
2021/07/19 03:38:31;;;;;;;;;;;;;;;15.30;84.57;99848.88;4973764;28;20364;-61
2021/07/19 03:40:56;;;;;;;;;;;;;;;15.30;85.08;99853.44;4974672;28;20352;-60
2021/07/19 03:43:25;;;;;;;;;;;;;;;15.30;85.09;99865.06;4973719;28;19921;-60
2021/07/19 03:45:50;;;;;;;;;;;;;;;15.20;85.29;99869.56;4973258;28;20349;-60
2021/07/19 03:48:21;;;;;;;;;;;;;;;15.12;85.75;99859.22;4974150;28;20410;-62
2021/07/19 03:50:47;;;;;;;;;;;;;;;15.31;85.66;99861.28;4990779;28;19921;-62
2021/07/19 03:53:15;;;;;;;;;;;;;;;15.39;85.08;99864.59;4993209;28;20395;-62
2021/07/19 03:55:42;;;;;;;;;;;;;;;15.41;84.90;99859.75;4992156;28;19918;-62
2021/07/19 03:58:11;;;;;;;;;;;;;;;15.79;83.56;99860.56;4993101;28;19914;-62
2021/07/19 04:00:36;;;;;;;;;;;;;;;16.36;80.92;99860.56;4993732;28;19976;-62
2021/07/19 04:03:25;;;;;;;;;;;;;;;16.89;78.48;99860.44;4993161;28;19917;-62
2021/07/19 04:05:57;;;;;;;;;;;;;;;16.85;77.79;99862.09;4992620;28;20395;-62
2021/07/19 04:08:23;;;;;;;;;;;;;;;17.35;76.17;99856.97;4993019;28;19957;-61
2021/07/19 04:10:51;;;;;;;;;;;;;;;17.89;74.53;99862.59;4993634;28;20328;-60
2021/07/19 04:13:16;;;;;;;;;;;;;;;18.47;71.67;99869.41;4992687;28;19961;-60
2021/07/19 04:15:45;;;;;;;;;;;;;;;18.93;70.03;99864.56;4992402;28;19937;-60
2021/07/19 04:18:11;;;;;;;;;;;;;;;19.49;67.83;99860.59;4992685;28;20388;-60
2021/07/19 04:20:36;;;;;;;;;;;;;;;20.01;65.48;99859.00;4993652;28;19918;-60
2021/07/19 04:23:01;;;;;;;;;;;;;;;20.86;62.17;99860.06;4993915;28;19910;-61
2021/07/19 04:25:30;;;;;;;;;;;;;;;21.26;60.51;99867.91;4992281;28;19918;-60
2021/07/19 04:27:55;;;;;;;;;;;;;;;21.54;59.35;99874.28;4993899;28;19918;-60
2021/07/19 04:30:30;;;;;;;;;;;;;;;22.40;57.30;99876.50;4992424;28;19933;-60
2021/07/19 04:32:55;;;;;;;;;;;;;;;21.66;59.08;99879.25;4992861;28;19914;-61
2021/07/19 04:35:20;;;;;;;;;;;;;;;22.18;57.36;99877.97;4993764;28;20360;-61
2021/07/19 04:37:50;;;;;;;;;;;;;;;22.72;55.97;99882.91;4993891;28;19914;-61
2021/07/19 04:40:19;;;;;;;;;;;;;;;22.38;57.55;99886.91;4993278;28;19976;-61
2021/07/19 04:42:44;;;;;;;;;;;;;;;22.81;55.42;99887.34;4993956;28;19918;-61
2021/07/19 04:45:10;;;;;;;;;;;;;;;24.14;51.59;99887.88;4993483;28;19917;-60
2021/07/19 04:47:35;;;;;;;;;;;;;;;24.02;51.82;99880.28;4992425;28;20330;-61
2021/07/19 04:50:03;;;;;;;;;;;;;;;25.03;49.76;99883.88;4993785;28;20005;-60
2021/07/19 04:52:29;;;;;;;;;;;;;;;26.27;45.66;99889.56;4993360;28;19922;-61
2021/07/19 04:54:58;;;;;;;;;;;;;;;24.74;49.17;99884.53;4993682;28;19961;-60
2021/07/19 04:57:23;;;;;;;;;;;;;;;24.64;49.73;99896.59;4992029;28;19918;-60
2021/07/19 04:59:55;;;;;;;;;;;;;;;24.89;49.77;99908.72;4992403;28;20027;-61
2021/07/19 05:02:21;;;;;;;;;;;;;;;24.62;49.79;99898.84;4991674;28;20261;-61
2021/07/19 05:04:50;;;;;;;;;;;;;;;25.01;49.16;99902.59;4993501;28;19921;-61
2021/07/19 05:07:16;;;;;;;;;;;;;;;24.05;51.38;99902.34;4996304;28;19972;-61
2021/07/19 05:09:44;;;;;;;;;;;;;;;23.71;53.34;99902.97;4997122;28;19952;-61
2021/07/19 05:12:10;;;;;;;;;;;;;;;24.32;50.88;99895.84;4996733;28;19918;-61
2021/07/19 05:14:39;;;;;;;;;;;;;;;24.44;50.37;99891.69;4996036;28;19913;-61
2021/07/19 05:17:04;;;;;;;;;;;;;;;23.12;53.84;99902.25;4996692;28;19918;-61
2021/07/19 05:19:33;;;;;;;;;;;;;;;23.50;53.69;99902.69;4996999;28;19971;-61
2021/07/19 05:21:58;;;;;;;;;;;;;;;24.66;50.57;99899.81;4995318;28;19925;-61
2021/07/19 05:24:30;;;;;;;;;;;;;;;24.22;51.43;99898.88;4996878;28;19914;-61
2021/07/19 05:26:55;;;;;;;;;;;;;;;25.37;48.72;99898.72;4996531;28;20426;-61
2021/07/19 05:29:23;;;;;;;;;;;;;;;25.80;46.83;99895.06;4996954;28;19913;-61
2021/07/19 05:31:48;;;;;;;;;;;;;;;26.04;46.85;99900.81;4996397;28;20368;-61
2021/07/19 05:34:17;;;;;;;;;;;;;;;26.57;45.26;99906.06;4996805;28;19921;-61
2021/07/19 05:36:42;;;;;;;;;;;;;;;24.12;51.19;99904.66;4996358;28;19921;-61
2021/07/19 05:39:07;;;;;;;;;;;;;;;25.42;48.26;99901.28;4996624;28;19967;-61
2021/07/19 05:41:33;;;;;;;;;;;;;;;24.70;49.91;99906.25;4996474;28;19917;-61
2021/07/19 05:43:58;;;;;;;;;;;;;;;24.43;50.63;99903.75;4993479;28;20003;-61
2021/07/19 05:46:23;;;;;;;;;;;;;;;25.15;49.07;99900.47;4996166;28;20356;-61
2021/07/19 05:48:48;;;;;;;;;;;;;;;26.70;45.80;99905.00;4995916;28;19952;-61
2021/07/19 05:51:14;;;;;;;;;;;;;;;27.22;44.38;99903.81;4995881;28;19928;-61
2021/07/19 05:53:39;;;;;;;;;;;;;;;27.57;43.42;99907.03;4996393;28;19945;-61
2021/07/19 05:56:08;;;;;;;;;;;;;;;27.00;44.74;99904.94;4996237;28;19924;-61
2021/07/19 05:58:33;;;;;;;;;;;;;;;26.88;44.83;99909.25;4996376;28;20008;-61
2021/07/19 06:01:05;;;;;;;;;;;;;;;26.47;46.31;99899.78;4995839;28;19970;-61
2021/07/19 06:03:30;;;;;;;;;;;;;;;27.22;44.18;99901.88;4996371;28;19960;-61
2021/07/19 06:05:58;;;;;;;;;;;;;;;27.80;42.87;99895.59;4996008;28;20349;-61
2021/07/19 06:08:23;;;;;;;;;;;;;;;26.41;45.84;99900.28;4996247;28;19914;-61
2021/07/19 06:10:55;;;;;;;;;;;;;;;24.42;50.64;99899.44;4995783;28;19969;-61
2021/07/19 06:13:20;;;;;;;;;;;;;;;26.47;46.78;99897.03;4995013;28;20384;-61
2021/07/19 06:15:48;;;;;;;;;;;;;;;27.83;43.22;99898.53;4995745;28;19960;-61
2021/07/19 06:18:13;;;;;;;;;;;;;;;24.90;49.39;99904.03;4995365;28;19968;-61
2021/07/19 06:20:44;;;;;;;;;;;;;;;22.29;57.34;99905.94;4994244;28;19918;-61
2021/07/19 06:23:10;;;;;;;;;;;;;;;22.03;58.79;99905.59;4996039;28;19913;-61
2021/07/19 06:25:41;;;;;;;;;;;;;;;21.39;61.54;99907.25;4995446;28;19964;-60
2021/07/19 06:28:07;;;;;;;;;;;;;;;21.37;61.82;99909.44;4995016;28;19914;-61
2021/07/19 06:30:32;;;;;;;;;;;;;;;20.29;65.77;99908.19;4995390;28;19928;-60
2021/07/19 06:32:57;;;;;;;;;;;;;;;19.91;66.48;99905.34;4995650;28;19918;-60
2021/07/19 06:35:29;;;;;;;;;;;;;;;19.14;69.43;99916.84;4995135;28;19917;-60
2021/07/19 06:37:54;;;;;;;;;;;;;;;19.32;69.01;99922.69;4994266;28;19914;-61
2021/07/19 06:40:23;;;;;;;;;;;;;;;19.33;68.75;99913.47;4995275;28;19925;-60
2021/07/19 06:42:48;;;;;;;;;;;;;;;19.76;67.45;99910.94;4995506;28;19913;-60
2021/07/19 06:45:16;;;;;;;;;;;;;;;19.27;69.49;99914.59;4994915;28;19920;-61
2021/07/19 06:47:42;;;;;;;;;;;;;;;19.00;70.42;99925.94;4995311;28;19917;-61
2021/07/19 06:50:14;;;;;;;;;;;;;;;19.49;68.56;99914.94;4995263;28;19913;-61
2021/07/19 06:52:39;;;;;;;;;;;;;;;19.74;67.83;99913.13;4994823;28;19913;-61
2021/07/19 06:55:07;;;;;;;;;;;;;;;19.71;67.63;99913.72;4994796;28;19961;-61
2021/07/19 06:57:33;;;;;;;;;;;;;;;19.30;69.01;99912.13;4995206;28;19910;-61
2021/07/19 07:00:07;;;;;;;;;;;;;;;19.48;68.28;99910.63;4995155;28;19964;-61
2021/07/19 07:02:33;;;;;;;;;;;;;;;19.29;68.99;99917.84;4995004;28;20100;-61
2021/07/19 07:04:58;;;;;;;;;;;;;;;19.95;66.77;99911.84;4995335;28;19914;-61
2021/07/19 07:07:23;;;;;;;;;;;;;;;20.02;66.69;99909.59;4994672;28;19918;-61
2021/07/19 07:09:52;;;;;;;;;;;;;;;19.95;67.56;99914.56;4994885;28;19977;-61
2021/07/19 07:12:17;;;;;;;;;;;;;;;20.59;64.75;99912.50;4994555;28;20486;-61
2021/07/19 07:15:02;;;;;;;;;;;;;;;19.54;67.73;99914.91;4995108;28;19949;-63
2021/07/19 07:17:30;;;;;;;;;;;;;;;19.71;68.19;99908.28;4994160;28;19917;-61
2021/07/19 07:19:56;;;;;;;;;;;;;;;20.19;65.75;99909.16;4994973;28;19976;-61
2021/07/19 07:22:27;;;;;;;;;;;;;;;20.12;66.56;99910.56;4994307;28;20367;-61
2021/07/19 07:24:52;;;;;;;;;;;;;;;19.66;68.09;99911.00;4993386;28;19921;-61
2021/07/19 07:27:23;;;;;;;;;;;;;;;20.11;65.86;99911.69;4994215;28;20292;-61
2021/07/19 07:29:48;;;;;;;;;;;;;;;19.85;66.94;99914.69;4992652;28;20356;-61
2021/07/19 07:32:17;;;;;;;;;;;;;;;19.94;66.61;99899.31;4994321;28;19924;-61
2021/07/19 07:34:42;;;;;;;;;;;;;;;20.13;66.27;99912.22;4994529;28;19921;-61
2021/07/19 07:37:12;;;;;;;;;;;;;;;22.56;58.30;99912.47;4994209;28;19918;-61
2021/07/19 07:39:38;;;;;;;;;;;;;;;20.88;62.31;99908.84;4994407;28;19933;-61
2021/07/19 07:42:07;;;;;;;;;;;;;;;21.03;61.82;99913.25;4994005;28;19941;-61
2021/07/19 07:44:32;;;;;;;;;;;;;;;20.86;60.93;99900.94;4991486;28;19918;-61
2021/07/19 07:47:01;;;;;;;;;;;;;;;20.19;62.12;99905.59;4993843;28;19941;-61
2021/07/19 07:49:26;;;;;;;;;;;;;;;19.98;63.30;99897.66;4994239;28;19918;-61
2021/07/19 07:51:58;;;;;;;;;;;;;;;20.61;61.17;99898.56;4993837;28;19917;-61
2021/07/19 07:54:23;;;;;;;;;;;;;;;20.38;61.72;99895.56;4994130;28;19921;-61
2021/07/19 07:56:49;;;;;;;;;;;;;;;20.11;62.57;99895.34;4993888;28;19918;-61
2021/07/19 07:59:14;;;;;;;;;;;;;;;19.73;63.88;99895.22;4994315;28;19913;-61
2021/07/19 08:01:39;;;;;;;;;;;;;;;19.79;62.61;99896.75;4993764;28;19991;-61
2021/07/19 08:04:05;;;;;;;;;;;;;;;19.71;62.75;99900.94;4993918;28;19913;-61
2021/07/19 08:06:30;;;;;;;;;;;;;;;19.80;61.96;99906.56;4993451;28;19954;-61
2021/07/19 08:08:55;;;;;;;;;;;;;;;20.07;61.62;99907.91;4994222;28;19967;-61
2021/07/19 08:11:20;;;;;;;;;;;;;;;20.18;61.18;99909.44;4993627;28;19964;-61
2021/07/19 08:13:46;;;;;;;;;;;;;;;20.39;60.01;99905.38;4994128;28;20403;-61
2021/07/19 08:16:11;;;;;;;;;;;;;;;20.07;60.65;99905.19;4992284;28;19924;-61
2021/07/19 08:18:40;;;;;;;;;;;;;;;20.20;61.86;99901.78;4993968;28;19914;-61
2021/07/19 08:21:05;;;;;;;;;;;;;;;22.43;56.41;99914.09;4993506;28;19918;-61
2021/07/19 08:23:31;;;;;;;;;;;;;;;20.68;59.81;99905.28;4994225;28;20343;-61
2021/07/19 08:25:56;;;;;;;;;;;;;;;20.21;61.53;99904.19;4992013;28;19925;-61
2021/07/19 08:28:21;;;;;;;;;;;;;;;20.43;62.00;99903.66;4992517;28;19914;-61
2021/07/19 08:30:46;;;;;;;;;;;;;;;20.54;61.32;99904.34;4993612;28;19918;-61
2021/07/19 08:33:12;;;;;;;;;;;;;;;21.12;59.50;99892.41;4994389;28;19918;-62
2021/07/19 08:35:38;;;;;;;;;;;;;;;20.93;59.14;99897.06;4993300;28;20027;-61
2021/07/19 08:38:04;;;;;;;;;;;;;;;21.24;58.26;99897.38;4993963;28;19977;-61
2021/07/19 08:40:32;;;;;;;;;;;;;;;22.40;54.21;99909.25;4993876;28;20007;-61
2021/07/19 08:42:58;;;;;;;;;;;;;;;20.52;58.87;99903.84;4997705;28;19913;-61
2021/07/19 08:45:27;;;;;;;;;;;;;;;20.36;59.90;99902.41;4997328;28;20009;-61
2021/07/19 08:47:52;;;;;;;;;;;;;;;20.55;59.84;99899.75;4997351;28;20368;-61
2021/07/19 08:50:21;;;;;;;;;;;;;;;20.48;59.53;99906.34;4997247;28;19921;-61
2021/07/19 08:52:47;;;;;;;;;;;;;;;21.19;58.39;99901.03;4997637;28;19906;-61
2021/07/19 08:55:18;;;;;;;;;;;;;;;21.49;56.81;99896.19;4997266;28;19978;-61
2021/07/19 08:57:46;;;;;;;;;;;;;;;21.99;55.49;99899.13;4996356;28;19913;-61
2021/07/19 09:00:11;;;;;;;;;;;;;;;22.03;54.70;99900.13;4979930;28;20355;-61
2021/07/19 09:02:37;;;;;;;;;;;;;;;20.87;57.90;99897.13;4997434;28;19957;-61
2021/07/19 09:05:08;;;;;;;;;;;;;;;21.43;56.05;99887.28;4995617;28;20256;-61
2021/07/19 09:07:33;;;;;;;;;;;;;;;22.31;54.29;99900.16;4997416;28;19960;-61
2021/07/19 09:10:01;;;;;;;;;;;;;;;23.20;51.17;99896.84;4997588;28;19913;-61
2021/07/19 09:12:31;;;;;;;;;;;;;;;22.64;51.96;99902.75;4996900;28;20355;-61
2021/07/19 09:14:56;;;;;;;;;;;;;;;22.75;52.37;99901.44;4997112;28;20371;-62
2021/07/19 09:17:22;;;;;;;;;;;;;;;23.20;49.51;99888.66;4996724;28;19964;-61
2021/07/19 09:19:50;;;;;;;;;;;;;;;23.19;51.09;99903.44;4997078;28;20355;-61
2021/07/19 09:22:21;;;;;;;;;;;;;;;23.59;50.06;99892.59;4996685;28;19953;-61
2021/07/19 09:24:46;;;;;;;;;;;;;;;22.80;53.13;99893.13;4996913;28;20008;-62
2021/07/19 09:27:15;;;;;;;;;;;;;;;22.77;53.46;99888.28;4996483;28;20013;-62
2021/07/19 09:29:40;;;;;;;;;;;;;;;22.36;53.50;99891.84;4995598;28;20295;-62
2021/07/19 09:32:07;;;;;;;;;;;;;;;22.83;51.64;99887.81;4996580;28;20364;-62
2021/07/19 09:34:35;;;;;;;;;;;;;;;24.85;45.93;99890.47;4996770;28;19964;-62
2021/07/19 09:37:01;;;;;;;;;;;;;;;25.64;44.04;99883.81;4996472;28;19921;-62
2021/07/19 09:39:37;;;;;;;;;;;;;;;24.29;45.46;99885.53;4996813;28;19999;-62
2021/07/19 09:42:03;;;;;;;;;;;;;;;22.39;51.63;99888.53;4996326;28;19918;-62
2021/07/19 09:44:32;;;;;;;;;;;;;;;22.06;53.42;99869.50;4996526;28;19921;-60
2021/07/19 09:46:58;;;;;;;;;;;;;;;21.86;54.24;99875.34;4992879;28;19940;-62
2021/07/19 09:49:26;;;;;;;;;;;;;;;23.80;50.48;99876.47;4996267;28;20368;-62
2021/07/19 09:51:56;;;;;;;;;;;;;;;23.10;50.85;99877.16;4995607;28;20413;-62
2021/07/19 09:54:21;;;;;;;;;;;;;;;22.90;50.89;99878.41;4996043;28;20333;-62
2021/07/19 09:56:46;;;;;;;;;;;;;;;25.11;45.72;99866.63;4994692;28;19918;-62
2021/07/19 09:59:13;;;;;;;;;;;;;;;23.31;49.28;99872.78;4994986;28;19914;-62
2021/07/19 10:01:42;;;;;;;;;;;;;;;22.85;50.97;99871.13;4995490;28;20008;-62
2021/07/19 10:04:11;;;;;;;;;;;;;;;23.74;48.86;99872.28;4996239;28;19913;-62
2021/07/19 10:06:38;;;;;;;;;;;;;;;23.87;48.26;99865.09;4995684;28;19918;-62
2021/07/19 10:09:05;;;;;;;;;;;;;;;25.28;44.45;99862.25;4996124;28;19929;-62
2021/07/19 10:11:34;;;;;;;;;;;;;;;25.81;42.91;99864.53;4995681;28;19960;-62
2021/07/19 10:14:00;;;;;;;;;;;;;;;25.14;44.29;99859.69;4996019;28;19965;-62
2021/07/19 10:16:28;;;;;;;;;;;;;;;25.73;42.93;99853.56;4995774;28;19953;-62
2021/07/19 10:18:56;;;;;;;;;;;;;;;26.53;40.58;99869.38;4996173;28;19913;-62
2021/07/19 10:21:22;;;;;;;;;;;;;;;25.77;43.83;99863.56;4995712;28;19976;-62
2021/07/19 10:23:47;;;;;;;;;;;;;;;25.10;45.65;99865.00;4987199;28;20348;-62
2021/07/19 10:26:12;;;;;;;;;;;;;;;24.52;46.41;99858.06;4974945;28;19925;-62
2021/07/19 10:28:41;;;;;;;;;;;;;;;24.73;46.77;99850.81;4976468;28;19920;-62
2021/07/19 10:31:08;;;;;;;;;;;;;;;24.17;46.97;99857.94;4976010;28;19918;-62
2021/07/19 10:33:36;;;;;;;;;;;;;;;24.82;46.23;99853.56;4959173;28;20052;-62
2021/07/19 10:36:02;;;;;;;;;;;;;;;24.41;46.22;99859.44;4974597;28;20308;-62
2021/07/19 10:38:30;;;;;;;;;;;;;;;25.26;45.85;99851.63;4974938;28;19914;-62
2021/07/19 10:40:56;;;;;;;;;;;;;;;24.80;46.18;99855.00;4974348;28;20000;-60
2021/07/19 10:43:26;;;;;;;;;;;;;;;24.11;47.20;99850.97;4974882;28;19963;-61
2021/07/19 10:45:53;;;;;;;;;;;;;;;23.76;49.26;99850.84;4975510;28;20360;-60
2021/07/19 10:48:25;;;;;;;;;;;;;;;23.21;49.68;99845.69;4975695;28;19918;-61
2021/07/19 10:50:51;;;;;;;;;;;;;;;23.42;47.23;99851.47;4975352;28;19918;-62
2021/07/19 10:53:20;;;;;;;;;;;;;;;25.05;45.25;99843.22;4974656;28;19921;-62
2021/07/19 10:55:59;;;;;;;;;;;;;;;25.29;44.05;99842.75;4975612;28;19921;-62
2021/07/19 10:58:29;;;;;;;;;;;;;;;25.36;44.83;99843.06;4975787;28;19914;-61
2021/07/19 11:00:54;;;;;;;;;;;;;;;25.04;46.54;99849.03;4975287;28;19925;-61
2021/07/19 11:03:20;;;;;;;;;;;;;;;24.86;45.80;99848.22;4974275;28;19914;-62
2021/07/19 11:05:54;;;;;;;;;;;;;;;25.98;43.59;99854.63;4975384;28;19918;-62
2021/07/19 11:08:24;;;;;;;;;;;;;;;24.87;44.84;99844.38;4975593;28;19921;-62
2021/07/19 11:10:49;;;;;;;;;;;;;;;26.45;41.42;99844.34;4975183;28;19924;-62
2021/07/19 11:13:31;;;;;;;;;;;;;;;27.21;40.07;99839.75;4975524;28;20020;-62
2021/07/19 11:15:56;;;;;;;;;;;;;;;25.35;44.66;99840.63;4975325;28;19918;-62
2021/07/19 11:18:23;;;;;;;;;;;;;;;24.32;46.96;99845.75;4975659;28;19936;-62
2021/07/19 11:20:48;;;;;;;;;;;;;;;24.74;44.90;99846.94;4975105;28;20005;-62
2021/07/19 11:23:26;;;;;;;;;;;;;;;25.38;44.12;99846.25;4975485;28;19968;-62
2021/07/19 11:25:52;;;;;;;;;;;;;;;24.67;45.43;99846.63;4974659;28;20365;-62
2021/07/19 11:28:19;;;;;;;;;;;;;;;24.93;45.13;99845.81;4973985;28;19914;-62
2021/07/19 11:31:02;;;;;;;;;;;;;;;25.81;43.14;99847.28;4974488;28;20280;-62
2021/07/19 11:33:34;;;;;;;;;;;;;;;26.03;43.12;99841.53;4975195;28;19914;-63
2021/07/19 11:36:01;;;;;;;;;;;;;;;24.91;45.34;99840.66;4974462;28;19925;-62
2021/07/19 11:38:34;;;;;;;;;;;;;;;25.46;43.35;99844.66;4977276;28;20064;-62
2021/07/19 11:40:59;;;;;;;;;;;;;;;24.69;44.91;99835.34;4974890;28;20027;-62
2021/07/19 11:43:35;;;;;;;;;;;;;;;26.01;43.36;99838.31;4975250;28;19949;-62
2021/07/19 11:46:01;;;;;;;;;;;;;;;26.54;41.55;99840.78;4974677;28;19918;-62
2021/07/19 11:48:26;;;;;;;;;;;;;;;25.94;43.51;99832.53;4973437;28;20020;-62
2021/07/19 11:50:58;;;;;;;;;;;;;;;25.36;44.46;99832.06;4973210;28;19925;-63
2021/07/19 11:53:23;;;;;;;;;;;;;;;24.66;45.11;99822.25;4973536;28;19914;-62
2021/07/19 11:55:49;;;;;;;;;;;;;;;24.20;46.28;99827.19;4974617;28;19918;-62
2021/07/19 11:58:14;;;;;;;;;;;;;;;23.83;47.61;99834.78;4974731;28;20324;-62
2021/07/19 12:00:41;;;;;;;;;;;;;;;24.15;46.81;99830.06;4974565;28;19969;-62
2021/07/19 12:03:13;;;;;;;;;;;;;;;24.93;44.87;99823.88;4974508;28;19914;-62
2021/07/19 12:05:54;;;;;;;;;;;;;;;24.70;45.35;99824.03;4974135;28;19925;-62
2021/07/19 12:08:38;;;;;;;;;;;;;;;23.79;47.34;99822.88;4974730;28;19914;-62
2021/07/19 12:11:04;;;;;;;;;;;;;;;24.57;46.65;99835.16;4974102;28;20364;-62
2021/07/19 12:13:34;;;;;;;;;;;;;;;24.31;45.83;99833.97;4973430;28;20333;-62
2021/07/19 12:15:59;;;;;;;;;;;;;;;24.50;46.41;99830.16;4973739;28;19918;-62
2021/07/19 12:18:31;;;;;;;;;;;;;;;24.70;46.36;99825.97;4974747;28;19910;-62
2021/07/19 12:21:04;;;;;;;;;;;;;;;24.73;45.03;99819.84;4974336;28;20014;-62
2021/07/19 12:23:38;;;;;;;;;;;;;;;24.71;46.03;99825.66;4974528;28;20320;-62
2021/07/19 12:26:06;;;;;;;;;;;;;;;24.66;46.58;99825.84;4972710;28;19918;-62
2021/07/19 12:28:31;;;;;;;;;;;;;;;24.65;46.61;99810.50;4973024;28;19914;-62
2021/07/19 12:31:15;;;;;;;;;;;;;;;24.94;45.82;99811.78;4973998;28;19941;-62
2021/07/19 12:33:43;;;;;;;;;;;;;;;24.99;45.40;99806.13;4974405;28;19965;-62
2021/07/19 12:36:09;;;;;;;;;;;;;;;24.68;45.71;99809.84;4972701;28;20291;-62
2021/07/19 12:38:40;;;;;;;;;;;;;;;24.48;46.15;99810.50;4974729;28;20280;-62
2021/07/19 12:41:11;;;;;;;;;;;;;;;24.27;47.15;99813.81;4972483;28;19918;-62
2021/07/19 12:43:39;;;;;;;;;;;;;;;24.26;48.53;99814.97;4974115;28;19914;-62
2021/07/19 12:46:04;;;;;;;;;;;;;;;24.86;45.25;99815.31;4956831;28;19925;-62
2021/07/19 12:48:30;;;;;;;;;;;;;;;23.32;48.39;99811.50;4972843;28;19922;-62